createdAt,value
2019-02-24T00:03:14.527Z,-2.37
2019-02-24T00:08:20.036Z,-2.26
2019-02-24T00:13:24.958Z,-1.94
2019-02-24T00:18:29.680Z,-2.05
2019-02-24T00:23:34.525Z,-2.43
2019-02-24T00:28:39.472Z,-1.80
2019-02-24T00:33:44.930Z,-2.19
2019-02-24T00:38:49.777Z,-1.99
2019-02-24T00:43:54.851Z,-1.78
2019-02-24T00:48:59.750Z,-1.76
2019-02-24T00:54:04.717Z,-1.82
2019-02-24T00:59:10.584Z,-1.45
2019-02-24T01:04:15.460Z,-2.40
2019-02-24T01:09:20.375Z,-2.68
2019-02-24T01:14:25.155Z,-2.58
2019-02-24T01:19:29.974Z,-2.39
2019-02-24T01:24:34.706Z,-2.90
2019-02-24T01:29:40.880Z,-2.05
2019-02-24T01:34:45.725Z,-1.75
2019-02-24T01:39:50.393Z,-1.64
2019-02-24T01:44:55.148Z,-1.76
2019-02-24T01:49:59.757Z,-1.43
2019-02-24T01:55:04.690Z,-1.41
2019-02-24T02:00:10.671Z,-1.47
2019-02-24T02:05:15.754Z,-1.42
2019-02-24T02:10:20.646Z,-1.80
2019-02-24T02:15:25.405Z,-1.73
2019-02-24T02:20:30.149Z,-2.18
2019-02-24T02:25:35.811Z,-1.73
2019-02-24T02:30:40.557Z,-1.82
2019-02-24T02:35:45.296Z,-1.96
2019-02-24T02:40:49.955Z,-1.84
2019-02-24T02:45:54.785Z,-1.71
2019-02-24T02:50:59.435Z,-1.84
2019-02-24T02:56:04.163Z,-2.86
2019-02-24T03:01:09.019Z,-2.30
2019-02-24T03:06:27.579Z,-2.53
2019-02-24T03:11:34.336Z,-2.39
2019-02-24T03:16:39.106Z,-2.94
2019-02-24T03:21:43.949Z,-2.91
2019-02-24T03:26:48.697Z,-2.78
2019-02-24T03:31:53.538Z,-2.87
2019-02-24T03:36:58.275Z,-3.34
2019-02-24T03:42:04.041Z,-3.38
2019-02-24T03:47:09.925Z,-3.54
2019-02-24T03:52:15.780Z,-3.46
2019-02-24T03:57:20.525Z,-4.55
2019-02-24T04:02:25.263Z,-4.85
2019-02-24T04:07:30.005Z,-4.30
2019-02-24T04:12:34.749Z,-3.98
2019-02-24T04:17:41.134Z,-4.16
2019-02-24T04:22:46.029Z,-4.53
2019-02-24T04:27:50.824Z,-4.92
2019-02-24T04:32:55.565Z,-4.96
2019-02-24T04:38:01.433Z,-4.59
2019-02-24T04:43:06.072Z,-5.60
2019-02-24T04:48:10.815Z,-5.36
2019-02-24T04:53:16.541Z,-5.74
2019-02-24T04:58:21.318Z,-5.48
2019-02-24T05:03:26.065Z,-4.88
2019-02-24T05:08:30.809Z,-4.84
2019-02-24T05:13:35.554Z,-4.37
2019-02-24T05:18:40.209Z,-4.26
2019-02-24T05:23:44.928Z,-4.58
2019-02-24T05:28:49.773Z,-4.66
2019-02-24T05:33:54.513Z,-5.23
2019-02-24T05:38:59.619Z,-4.68
2019-02-24T05:44:04.409Z,-4.37
2019-02-24T05:49:09.159Z,-3.98
2019-02-24T05:54:13.894Z,-3.91
2019-02-24T05:59:18.640Z,-3.42
2019-02-24T06:04:23.377Z,-3.32
2019-02-24T06:09:29.000Z,-3.22
2019-02-24T06:14:33.668Z,-4.10
2019-02-24T06:19:38.319Z,-4.30
2019-02-24T06:24:42.925Z,-4.30
2019-02-24T06:29:47.480Z,-4.80
2019-02-24T06:34:52.146Z,-4.30
2019-02-24T06:39:56.739Z,-4.19
2019-02-24T06:45:02.342Z,-4.10
2019-02-24T06:50:10.559Z,-3.61
2019-02-24T06:55:15.929Z,-3.24
2019-02-24T07:00:20.768Z,-3.19
2019-02-24T07:05:25.403Z,-2.72
2019-02-24T07:10:30.418Z,-2.86
2019-02-24T07:15:35.198Z,-2.94
2019-02-24T07:20:39.935Z,-2.06
2019-02-24T07:25:45.816Z,-1.96
2019-02-24T07:30:50.652Z,-2.00
2019-02-24T07:35:55.413Z,-1.55
2019-02-24T07:41:00.035Z,-1.06
2019-02-24T07:46:04.775Z,-1.58
2019-02-24T07:51:09.555Z,-1.89
2019-02-24T07:56:14.108Z,-1.58
2019-02-24T08:01:19.924Z,-2.03
2019-02-24T08:06:25.184Z,-1.21
2019-02-24T08:11:30.121Z,-0.93
2019-02-24T08:16:35.140Z,-0.66
2019-02-24T08:21:39.812Z,-1.02
2019-02-24T08:26:44.654Z,-0.27
2019-02-24T08:31:51.041Z,0.33
2019-02-24T08:36:55.683Z,0.70
2019-02-24T08:42:03.069Z,-1.10
2019-02-24T08:47:07.826Z,-1.08
2019-02-24T08:52:12.480Z,-0.06
2019-02-24T08:57:18.340Z,0.68
2019-02-24T09:02:23.133Z,1.90
2019-02-24T09:07:27.923Z,1.54
2019-02-24T09:12:33.501Z,2.06
2019-02-24T09:17:38.540Z,2.53
2019-02-24T09:22:43.187Z,0.95
2019-02-24T09:27:48.271Z,1.88
2019-02-24T09:32:53.067Z,2.49
2019-02-24T09:37:57.911Z,1.73
2019-02-24T09:43:02.762Z,1.98
2019-02-24T09:48:08.562Z,1.92
2019-02-24T09:53:13.395Z,2.34
2019-02-24T09:58:18.733Z,2.53
2019-02-24T10:03:24.529Z,2.89
2019-02-24T10:08:30.999Z,1.98
2019-02-24T10:13:35.946Z,1.43
2019-02-24T10:18:41.745Z,0.87
2019-02-24T10:23:47.064Z,2.03
2019-02-24T10:28:52.675Z,1.05
2019-02-24T10:33:57.794Z,1.99
2019-02-24T10:39:02.653Z,2.56
2019-02-24T10:44:08.987Z,2.68
2019-02-24T10:49:14.611Z,3.09
2019-02-24T10:54:19.388Z,4.09
2019-02-24T10:59:24.031Z,3.77
2019-02-24T11:04:28.772Z,3.89
2019-02-24T11:09:33.515Z,4.41
2019-02-24T11:14:38.467Z,4.18
2019-02-24T11:19:44.638Z,3.46
2019-02-24T11:24:49.586Z,2.59
2019-02-24T11:29:54.398Z,2.72
2019-02-24T11:34:59.201Z,2.29
2019-02-24T11:40:04.427Z,2.95
2019-02-24T11:45:10.049Z,2.14
2019-02-24T11:50:14.845Z,2.19
2019-02-24T11:55:19.587Z,3.30
2019-02-24T12:00:24.319Z,3.04
2019-02-24T12:05:29.063Z,3.08
2019-02-24T12:10:33.707Z,3.22
2019-02-24T12:15:39.499Z,2.10
2019-02-24T12:20:47.923Z,3.06
2019-02-24T12:25:52.679Z,2.32
2019-02-24T12:30:59.423Z,2.93
2019-02-24T12:36:05.504Z,2.15
2019-02-24T12:41:11.272Z,2.37
2019-02-24T12:46:16.008Z,2.22
2019-02-24T12:51:20.753Z,1.74
2019-02-24T12:56:25.515Z,1.58
2019-02-24T13:01:30.557Z,1.80
2019-02-24T13:06:36.635Z,2.25
2019-02-24T13:11:42.808Z,1.74
2019-02-24T13:16:48.586Z,1.83
2019-02-24T13:21:53.406Z,1.57
2019-02-24T13:26:58.354Z,1.87
2019-02-24T13:32:03.215Z,1.77
2019-02-24T13:37:08.051Z,1.16
2019-02-24T13:42:12.792Z,1.69
2019-02-24T13:47:17.514Z,1.61
2019-02-24T13:52:22.478Z,1.73
2019-02-24T13:57:27.123Z,1.39
2019-02-24T14:02:32.256Z,1.36
2019-02-24T14:07:37.015Z,0.79
2019-02-24T14:12:41.761Z,0.91
2019-02-24T14:17:46.514Z,1.14
2019-02-24T14:22:52.776Z,1.44
2019-02-24T14:27:57.621Z,1.73
2019-02-24T14:33:02.804Z,2.28
2019-02-24T14:38:09.374Z,1.91
2019-02-24T14:43:14.099Z,1.79
2019-02-24T14:48:18.840Z,1.27
2019-02-24T14:53:25.249Z,1.43
2019-02-24T14:58:30.026Z,0.85
2019-02-24T15:03:35.019Z,0.92
2019-02-24T15:08:39.753Z,0.74
2019-02-24T15:13:44.465Z,1.06
2019-02-24T15:18:50.135Z,0.05
2019-02-24T15:23:57.629Z,0.97
2019-02-24T15:29:04.721Z,-0.19
2019-02-24T15:34:10.012Z,0.67
2019-02-24T15:39:14.763Z,0.59
2019-02-24T15:44:20.742Z,0.36
2019-02-24T15:49:25.723Z,0.84
2019-02-24T15:54:30.630Z,0.65
2019-02-24T15:59:35.376Z,1.11
2019-02-24T16:04:40.845Z,1.02
2019-02-24T16:09:45.785Z,1.36
2019-02-24T16:14:51.985Z,1.26
2019-02-24T16:19:56.697Z,1.32
2019-02-24T16:25:02.538Z,1.20
2019-02-24T16:30:13.558Z,0.47
2019-02-24T16:35:20.263Z,0.51
2019-02-24T16:40:28.977Z,0.48
2019-02-24T16:45:33.976Z,0.16
2019-02-24T16:50:38.768Z,0.15
2019-02-24T16:55:44.142Z,0.28
2019-02-24T17:00:49.235Z,-0.03
2019-02-24T17:05:57.202Z,-0.09
2019-02-24T17:11:07.343Z,-0.99
2019-02-24T17:16:08.221Z,-0.07
2019-02-24T17:21:14.295Z,-0.84
2019-02-24T17:26:19.137Z,-0.54
2019-02-24T17:31:28.291Z,-0.31
2019-02-24T17:36:30.260Z,-0.23
2019-02-24T17:41:35.210Z,-0.41
2019-02-24T17:46:40.060Z,-0.01
2019-02-24T17:51:45.216Z,-0.15
2019-02-24T17:56:51.091Z,-0.27
2019-02-24T18:01:56.023Z,-0.14
2019-02-24T18:07:00.756Z,-0.24
2019-02-24T18:12:06.626Z,-0.23
2019-02-24T18:17:11.363Z,-0.77
2019-02-24T18:22:16.213Z,-0.82
2019-02-24T18:27:21.064Z,-1.36
2019-02-24T18:32:27.034Z,-1.40
2019-02-24T18:37:31.773Z,-1.33
2019-02-24T18:42:36.617Z,-1.16
2019-02-24T18:47:41.366Z,-1.32
2019-02-24T18:52:46.306Z,-1.23
2019-02-24T18:57:51.159Z,-1.87
2019-02-24T19:02:57.223Z,-1.82
2019-02-24T19:08:01.877Z,-2.34
2019-02-24T19:13:06.519Z,-2.24
2019-02-24T19:18:11.241Z,-2.20
2019-02-24T19:23:16.090Z,-2.08
2019-02-24T19:28:20.731Z,-2.23
2019-02-24T19:33:25.390Z,-1.66
2019-02-24T19:38:30.115Z,-1.59
2019-02-24T19:43:34.854Z,-1.55
2019-02-24T19:48:41.996Z,-1.53
2019-02-24T19:53:45.975Z,-1.43
2019-02-24T19:58:50.718Z,-2.15
2019-02-24T20:03:55.465Z,-2.30
2019-02-24T20:09:01.481Z,-1.78
2019-02-24T20:14:07.823Z,-2.17
2019-02-24T20:19:12.879Z,-2.47
2019-02-24T20:24:18.572Z,-2.22
2019-02-24T20:29:24.761Z,-2.33
2019-02-24T20:34:32.276Z,-2.07
2019-02-24T20:39:37.928Z,-1.72
2019-02-24T20:44:44.258Z,-1.76
2019-02-24T20:49:49.453Z,-1.79
2019-02-24T20:54:54.708Z,-2.10
2019-02-24T20:59:59.521Z,-2.21
2019-02-24T21:05:04.998Z,-2.64
2019-02-24T21:10:11.470Z,-2.37
2019-02-24T21:15:17.541Z,-2.68
2019-02-24T21:20:27.591Z,-3.11
2019-02-24T21:25:36.461Z,-3.62
2019-02-24T21:30:44.466Z,-3.22
2019-02-24T21:35:53.824Z,-3.50
2019-02-24T21:41:00.561Z,-3.56
2019-02-24T21:46:05.397Z,-3.63
2019-02-24T21:51:10.276Z,-3.47
2019-02-24T21:56:14.972Z,-3.45
2019-02-24T22:01:19.667Z,-4.16
2019-02-24T22:06:25.272Z,-4.40
2019-02-24T22:11:29.977Z,-4.37
2019-02-24T22:16:34.604Z,-4.00
2019-02-24T22:21:39.339Z,-4.42
2019-02-24T22:26:44.005Z,-3.43
2019-02-24T22:31:48.620Z,-3.26
2019-02-24T22:36:53.268Z,-3.43
2019-02-24T22:41:58.003Z,-3.97
2019-02-24T22:47:02.646Z,-3.85
2019-02-24T22:52:07.300Z,-3.55
2019-02-24T22:57:11.898Z,-3.15
2019-02-24T23:02:16.771Z,-3.34
2019-02-24T23:07:23.147Z,-3.54
2019-02-24T23:12:27.890Z,-3.99
2019-02-24T23:17:32.630Z,-4.08
2019-02-24T23:22:39.014Z,-4.16
2019-02-24T23:27:43.861Z,-4.14
2019-02-24T23:32:48.494Z,-4.12
2019-02-24T23:37:53.140Z,-3.70
2019-02-24T23:42:57.879Z,-4.70
2019-02-24T23:48:02.618Z,-4.82
2019-02-24T23:53:07.258Z,-4.46
2019-02-24T23:58:12.103Z,-4.16
